createdAt,value
2022-10-03T00:00:10.947Z,100786.81
2022-10-03T00:02:47.735Z,100773.78
2022-10-03T00:05:35.334Z,100776.88
2022-10-03T00:08:50.301Z,100780.41
2022-10-03T00:11:30.818Z,100792.91
2022-10-03T00:14:10.783Z,100791.94
2022-10-03T00:17:09.735Z,100790.84
2022-10-03T00:19:52.195Z,100795.28
2022-10-03T00:22:32.284Z,100797.84
2022-10-03T00:25:21.949Z,100794.69
2022-10-03T00:28:17.174Z,100796.94
2022-10-03T00:31:01.563Z,100803.53
2022-10-03T00:33:37.619Z,100794.47
2022-10-03T00:36:19.585Z,100794.69
2022-10-03T00:39:13.718Z,100798.66
2022-10-03T00:41:53.794Z,100798.81
2022-10-03T00:44:38.147Z,100800.84
2022-10-03T00:47:45.554Z,100806.34
2022-10-03T00:50:25.391Z,100806.06
2022-10-03T00:53:16.961Z,100817.06
2022-10-03T00:56:26.793Z,100821.72
2022-10-03T00:59:18.251Z,100812.47
2022-10-03T01:01:48.818Z,100825.34
2022-10-03T01:04:28.597Z,100819.47
2022-10-03T01:07:15.656Z,100823.03
2022-10-03T01:10:17.421Z,100828.50
2022-10-03T01:13:07.224Z,100835.06
2022-10-03T01:16:06.654Z,100828.13
2022-10-03T01:18:52.970Z,100844.41
2022-10-03T01:21:33.099Z,100836.06
2022-10-03T01:24:38.670Z,100825.41
2022-10-03T01:27:17.440Z,100834.44
2022-10-03T01:30:04.229Z,100833.94
2022-10-03T01:32:41.343Z,100835.44
2022-10-03T01:35:19.410Z,100837.94
2022-10-03T01:38:24.903Z,100840.13
2022-10-03T01:41:11.564Z,100848.25
2022-10-03T01:44:00.734Z,100836.72
2022-10-03T01:46:53.688Z,100842.03
2022-10-03T01:49:39.097Z,100846.34
2022-10-03T01:52:31.509Z,100847.53
2022-10-03T01:55:12.045Z,100854.81
2022-10-03T01:57:49.605Z,100855.50
2022-10-03T02:00:25.205Z,100858.50
2022-10-03T02:03:10.766Z,100854.66
2022-10-03T02:05:48.298Z,100856.50
2022-10-03T02:08:24.127Z,100864.59
2022-10-03T02:10:59.627Z,100854.03
2022-10-03T02:14:06.493Z,100859.31
2022-10-03T02:16:57.441Z,100859.31
2022-10-03T02:19:36.508Z,100866.25
2022-10-03T02:22:16.754Z,100867.06
2022-10-03T02:25:10.973Z,100860.34
2022-10-03T02:27:58.892Z,100864.31
2022-10-03T02:30:56.071Z,100861.88
2022-10-03T02:33:44.605Z,100857.13
2022-10-03T02:36:48.587Z,100856.13
2022-10-03T02:39:41.096Z,100860.09
2022-10-03T02:42:18.395Z,100857.09
2022-10-03T02:45:01.860Z,100862.84
2022-10-03T02:47:51.270Z,100861.66
2022-10-03T02:50:51.349Z,100865.09
2022-10-03T02:53:49.637Z,100873.91
2022-10-03T02:56:42.780Z,100879.66
2022-10-03T02:59:14.422Z,100874.41
2022-10-03T03:02:02.837Z,100872.03
2022-10-03T03:04:51.963Z,100873.88
2022-10-03T03:07:59.346Z,100872.03
2022-10-03T03:10:30.246Z,100873.34
2022-10-03T03:13:38.015Z,100882.06
2022-10-03T03:16:19.537Z,100889.34
2022-10-03T03:18:54.701Z,100889.50
2022-10-03T03:21:35.580Z,100892.19
2022-10-03T03:24:28.118Z,100891.22
2022-10-03T03:27:19.606Z,100884.94
2022-10-03T03:30:16.217Z,100883.94
2022-10-03T03:33:10.813Z,100884.53
2022-10-03T03:35:59.437Z,100898.31
2022-10-03T03:38:33.458Z,100897.88
2022-10-03T03:41:45.451Z,100889.97
2022-10-03T03:44:13.541Z,100887.59
2022-10-03T03:46:50.982Z,100885.94
2022-10-03T03:50:06.626Z,100900.25
2022-10-03T03:53:00.519Z,100899.34
2022-10-03T03:55:28.557Z,100891.44
2022-10-03T03:58:09.591Z,100901.19
2022-10-03T04:01:05.649Z,100906.00
2022-10-03T04:04:12.498Z,100925.41
2022-10-03T04:07:20.855Z,100925.09
2022-10-03T04:10:24.165Z,100912.53
2022-10-03T04:13:12.947Z,100921.16
2022-10-03T04:15:55.892Z,100926.41
2022-10-03T04:18:45.914Z,100933.78
2022-10-03T04:21:32.210Z,100929.19
2022-10-03T04:24:21.963Z,100922.00
2022-10-03T04:27:17.426Z,100928.63
2022-10-03T04:30:30.792Z,100928.47
2022-10-03T04:33:29.654Z,100920.56
2022-10-03T04:36:12.997Z,100909.75
2022-10-03T04:39:04.663Z,100911.47
2022-10-03T04:41:43.353Z,100914.81
2022-10-03T04:44:18.710Z,100906.06
2022-10-03T04:47:06.590Z,100900.53
2022-10-03T04:50:02.188Z,100899.03
2022-10-03T04:52:58.819Z,100901.50
2022-10-03T04:55:35.409Z,100903.91
2022-10-03T04:58:38.077Z,100896.00
2022-10-03T05:01:18.381Z,100893.56
2022-10-03T05:04:07.019Z,100893.16
2022-10-03T05:07:12.997Z,100898.84
2022-10-03T05:09:41.263Z,100903.44
2022-10-03T05:12:48.178Z,100910.63
2022-10-03T05:15:41.921Z,100907.28
2022-10-03T05:18:48.362Z,100911.75
2022-10-03T05:21:33.054Z,100909.25
2022-10-03T05:24:31.315Z,100905.38
2022-10-03T05:27:35.742Z,100904.13
2022-10-03T05:30:19.934Z,100920.59
2022-10-03T05:33:06.277Z,100926.09
2022-10-03T05:35:48.761Z,100925.28
2022-10-03T05:38:16.918Z,100931.22
2022-10-03T05:41:02.188Z,100933.59
2022-10-03T05:44:04.195Z,100931.78
2022-10-03T05:46:58.421Z,100928.16
2022-10-03T05:50:20.715Z,100929.53
2022-10-03T05:53:03.480Z,100928.97
2022-10-03T05:55:49.737Z,100935.50
2022-10-03T05:58:38.890Z,100937.81
2022-10-03T06:01:24.325Z,100933.47
2022-10-03T06:04:53.520Z,100944.91
2022-10-03T06:07:40.290Z,100947.41
2022-10-03T06:10:36.255Z,100951.47
2022-10-03T06:13:24.830Z,100949.56
2022-10-03T06:16:30.271Z,100953.41
2022-10-03T06:19:32.136Z,100947.16
2022-10-03T06:22:24.843Z,100952.81
2022-10-03T06:25:25.437Z,100955.28
2022-10-03T06:28:29.747Z,100963.53
2022-10-03T06:31:22.611Z,100963.66
2022-10-03T06:33:53.651Z,100969.44
2022-10-03T06:36:49.399Z,100962.00
2022-10-03T06:39:45.458Z,100951.25
2022-10-03T06:42:34.961Z,100954.38
2022-10-03T06:45:22.516Z,100959.13
2022-10-03T06:48:04.770Z,100954.22
2022-10-03T06:50:47.056Z,100950.38
2022-10-03T06:53:30.036Z,100968.78
2022-10-03T06:56:38.427Z,100962.66
2022-10-03T06:59:31.272Z,100961.97
2022-10-03T07:02:11.833Z,100967.66
2022-10-03T07:05:07.480Z,100964.22
2022-10-03T07:08:03.124Z,100955.53
2022-10-03T07:10:52.246Z,100957.44
2022-10-03T07:13:57.186Z,100963.00
2022-10-03T07:16:46.646Z,100968.91
2022-10-03T07:19:32.999Z,100962.06
2022-10-03T07:22:39.075Z,100969.69
2022-10-03T07:25:10.169Z,100972.56
2022-10-03T07:27:56.400Z,100969.03
2022-10-03T07:30:27.827Z,100970.56
2022-10-03T07:33:38.016Z,100978.28
2022-10-03T07:36:59.690Z,100971.78
2022-10-03T07:40:05.861Z,100968.56
2022-10-03T07:43:11.508Z,100974.28
2022-10-03T07:46:05.309Z,100985.47
2022-10-03T07:48:36.220Z,100983.47
2022-10-03T07:51:17.264Z,100978.56
2022-10-03T07:54:09.322Z,100978.69
2022-10-03T07:57:11.092Z,100974.81
2022-10-03T07:59:45.220Z,100976.50
2022-10-03T08:02:34.323Z,100976.16
2022-10-03T08:05:28.479Z,100969.56
2022-10-03T08:08:09.515Z,100972.13
2022-10-03T08:10:56.166Z,100972.97
2022-10-03T08:13:50.175Z,100972.56
2022-10-03T08:16:21.071Z,100967.88
2022-10-03T08:19:22.112Z,100968.22
2022-10-03T08:22:14.843Z,100969.50
2022-10-03T08:25:12.355Z,100969.09
2022-10-03T08:28:03.962Z,100970.03
2022-10-03T08:31:01.115Z,100977.06
2022-10-03T08:33:56.277Z,100984.84
2022-10-03T08:36:35.038Z,100986.25
2022-10-03T08:39:45.682Z,100991.44
2022-10-03T08:42:46.183Z,100992.53
2022-10-03T08:45:32.967Z,100996.06
2022-10-03T08:48:31.778Z,100976.56
2022-10-03T08:51:05.447Z,100990.75
2022-10-03T08:53:51.992Z,100989.50
2022-10-03T08:56:46.535Z,100985.28
2022-10-03T08:59:17.751Z,100980.97
2022-10-03T09:02:00.799Z,100989.53
2022-10-03T09:04:53.802Z,100977.91
2022-10-03T09:07:55.500Z,100981.47
2022-10-03T09:10:46.774Z,100977.13
2022-10-03T09:13:37.087Z,100978.31
2022-10-03T09:16:28.772Z,100988.00
2022-10-03T09:19:00.174Z,100982.19
2022-10-03T09:22:12.695Z,100985.91
2022-10-03T09:24:46.987Z,100981.50
